createdAt,value
2022-09-21T00:00:28.193Z,6.90
2022-09-21T00:03:17.867Z,6.90
2022-09-21T00:06:07.444Z,6.80
2022-09-21T00:08:56.471Z,6.80
2022-09-21T00:11:45.581Z,6.80
2022-09-21T00:14:33.752Z,6.80
2022-09-21T00:17:21.845Z,6.80
2022-09-21T00:20:11.775Z,6.80
2022-09-21T00:22:59.875Z,6.80
2022-09-21T00:25:48.010Z,6.80
2022-09-21T00:28:36.110Z,6.70
2022-09-21T00:31:24.671Z,6.70
2022-09-21T00:34:12.868Z,6.70
2022-09-21T00:37:02.288Z,6.70
2022-09-21T00:39:50.389Z,6.70
2022-09-21T00:42:38.853Z,6.60
2022-09-21T00:45:27.094Z,6.60
2022-09-21T00:48:16.309Z,6.60
2022-09-21T00:51:08.994Z,6.70
2022-09-21T00:54:02.498Z,6.60
2022-09-21T00:56:50.788Z,6.70
2022-09-21T00:59:40.514Z,6.60
2022-09-21T01:02:28.726Z,6.60
2022-09-21T01:05:16.778Z,6.60
2022-09-21T01:08:07.552Z,7.70
2022-09-21T01:11:16.074Z,6.60
2022-09-21T01:14:26.950Z,6.60
2022-09-21T01:17:20.034Z,6.70
2022-09-21T01:20:45.991Z,6.70
2022-09-21T01:23:46.644Z,6.70
2022-09-21T01:26:59.287Z,6.70
2022-09-21T01:29:51.172Z,6.70
2022-09-21T01:32:43.082Z,6.60
2022-09-21T01:35:35.918Z,6.60
2022-09-21T01:38:27.731Z,6.70
2022-09-21T01:41:19.723Z,6.70
2022-09-21T01:44:12.115Z,6.60
2022-09-21T01:47:04.815Z,6.60
2022-09-21T01:49:56.813Z,6.60
2022-09-21T01:52:50.948Z,6.60
2022-09-21T01:55:44.506Z,6.60
2022-09-21T01:58:38.499Z,6.60
2022-09-21T02:01:31.383Z,6.60
2022-09-21T02:04:20.888Z,6.60
2022-09-21T02:07:09.407Z,6.60
2022-09-21T02:09:58.570Z,6.50
2022-09-21T02:12:47.575Z,6.50
2022-09-21T02:15:49.450Z,6.50
2022-09-21T02:18:49.501Z,6.40
2022-09-21T02:21:49.805Z,6.40
2022-09-21T02:24:43.521Z,6.40
2022-09-21T02:27:37.037Z,6.40
2022-09-21T02:30:26.357Z,6.30
2022-09-21T02:33:22.821Z,6.40
2022-09-21T02:36:16.682Z,6.40
2022-09-21T02:39:10.954Z,6.40
2022-09-21T02:42:04.745Z,6.40
2022-09-21T02:44:58.655Z,6.30
2022-09-21T02:47:51.206Z,6.40
2022-09-21T02:50:44.842Z,6.30
2022-09-21T02:53:37.431Z,6.30
2022-09-21T02:56:27.868Z,6.30
2022-09-21T02:59:17.456Z,6.30
2022-09-21T03:02:07.035Z,6.30
2022-09-21T03:04:55.207Z,6.30
2022-09-21T03:07:43.272Z,6.20
2022-09-21T03:10:31.453Z,6.10
2022-09-21T03:13:21.333Z,6.20
2022-09-21T03:16:09.647Z,6.10
2022-09-21T03:18:57.730Z,6.10
2022-09-21T03:21:45.769Z,6.10
2022-09-21T03:24:48.681Z,6.00
2022-09-21T03:27:36.742Z,6.00
2022-09-21T03:30:27.239Z,6.00
2022-09-21T03:33:15.265Z,5.90
2022-09-21T03:36:04.224Z,5.80
2022-09-21T03:38:52.216Z,5.80
2022-09-21T03:41:40.376Z,5.80
2022-09-21T03:44:28.478Z,5.80
2022-09-21T03:47:17.840Z,5.80
2022-09-21T03:50:09.797Z,5.80
2022-09-21T03:52:58.593Z,5.80
2022-09-21T03:55:46.634Z,5.90
2022-09-21T03:58:34.965Z,5.90
2022-09-21T04:01:23.039Z,5.90
2022-09-21T04:04:12.419Z,5.90
2022-09-21T04:07:00.507Z,5.90
2022-09-21T04:09:48.516Z,5.80
2022-09-21T04:12:36.558Z,5.80
2022-09-21T04:15:24.736Z,5.80
2022-09-21T04:18:13.504Z,5.70
2022-09-21T04:21:02.897Z,5.70
2022-09-21T04:23:51.818Z,5.80
2022-09-21T04:26:41.096Z,5.80
2022-09-21T04:29:29.441Z,5.70
2022-09-21T04:32:17.478Z,5.70
2022-09-21T04:35:06.320Z,5.80
2022-09-21T04:37:57.243Z,5.70
2022-09-21T04:40:45.246Z,5.70
2022-09-21T04:43:33.381Z,5.70
2022-09-21T04:46:22.225Z,5.70
2022-09-21T04:49:10.680Z,5.70
2022-09-21T04:51:58.778Z,5.70
2022-09-21T04:54:48.145Z,5.60
2022-09-21T04:57:36.313Z,5.70
2022-09-21T05:00:24.448Z,5.70
2022-09-21T05:03:12.490Z,5.70
2022-09-21T05:06:00.885Z,5.70
2022-09-21T05:09:06.293Z,5.70
2022-09-21T05:11:55.889Z,5.70
2022-09-21T05:14:44.867Z,5.70
2022-09-21T05:17:32.893Z,5.80
2022-09-21T05:20:21.006Z,5.70
2022-09-21T05:23:11.682Z,5.90
2022-09-21T05:26:02.876Z,5.80
2022-09-21T05:28:53.003Z,6.00
2022-09-21T05:31:46.764Z,6.00
2022-09-21T05:34:45.881Z,6.00
2022-09-21T05:37:47.949Z,5.90
2022-09-21T05:40:36.603Z,6.00
2022-09-21T05:43:25.226Z,6.00
2022-09-21T05:46:21.605Z,6.00
2022-09-21T05:49:18.074Z,6.10
2022-09-21T05:52:12.561Z,6.10
2022-09-21T05:55:07.046Z,6.20
2022-09-21T05:58:02.782Z,6.30
2022-09-21T06:01:01.838Z,6.40
2022-09-21T06:03:52.014Z,6.40
2022-09-21T06:06:40.370Z,6.50
2022-09-21T06:09:28.603Z,6.70
2022-09-21T06:12:16.861Z,6.70
2022-09-21T06:15:05.595Z,6.90
2022-09-21T06:17:53.732Z,7.00
2022-09-21T06:20:43.156Z,7.10
2022-09-21T06:23:31.228Z,7.10
2022-09-21T06:26:19.245Z,7.10
2022-09-21T06:29:07.513Z,7.20
2022-09-21T06:31:55.636Z,7.20
2022-09-21T06:34:43.804Z,7.20
2022-09-21T06:37:33.227Z,7.20
2022-09-21T06:40:21.295Z,7.30
2022-09-21T06:43:09.397Z,7.30
2022-09-21T06:45:59.110Z,7.40
2022-09-21T06:48:47.166Z,7.40
2022-09-21T06:51:36.299Z,7.40
2022-09-21T06:54:26.275Z,7.50
2022-09-21T06:57:14.931Z,7.60
2022-09-21T07:00:03.294Z,7.90
2022-09-21T07:02:51.306Z,7.90
2022-09-21T07:05:39.501Z,8.10
2022-09-21T07:11:39.001Z,8.60
2022-09-21T07:14:27.041Z,8.60
2022-09-21T07:17:16.177Z,8.60
2022-09-21T07:20:05.797Z,8.90
2022-09-21T07:22:53.824Z,8.90
2022-09-21T07:25:43.923Z,9.10
2022-09-21T07:28:33.544Z,9.10
2022-09-21T07:31:21.608Z,9.20
2022-09-21T07:34:09.666Z,9.40
2022-09-21T07:36:57.653Z,9.40
2022-09-21T07:39:45.674Z,9.50
2022-09-21T07:42:33.730Z,9.60
2022-09-21T07:45:23.120Z,9.60
2022-09-21T07:48:11.204Z,9.50
2022-09-21T07:51:04.919Z,9.40
2022-09-21T07:53:57.238Z,9.40
2022-09-21T07:57:05.411Z,9.40
2022-09-21T07:59:52.736Z,9.50
2022-09-21T08:02:47.320Z,9.60
2022-09-21T08:05:35.835Z,9.70
2022-09-21T08:08:23.868Z,9.80
2022-09-21T08:11:12.075Z,9.90
2022-09-21T08:14:01.511Z,10.00
2022-09-21T08:16:50.058Z,10.10
2022-09-21T08:19:39.490Z,10.20
2022-09-21T08:22:27.591Z,10.30
2022-09-21T08:25:15.750Z,10.40
2022-09-21T08:28:08.830Z,10.40
2022-09-21T08:31:00.727Z,10.50
2022-09-21T08:33:49.005Z,10.60
2022-09-21T08:36:38.376Z,10.70
2022-09-21T08:39:26.514Z,10.80
2022-09-21T08:42:32.244Z,10.90
2022-09-21T08:45:22.209Z,11.00
2022-09-21T08:48:16.303Z,11.10
2022-09-21T08:51:08.160Z,11.20
2022-09-21T08:54:00.983Z,11.20
2022-09-21T08:57:04.398Z,11.30
2022-09-21T08:59:53.778Z,11.40
2022-09-21T09:03:02.605Z,11.40
2022-09-21T09:05:54.654Z,11.60
2022-09-21T09:09:12.666Z,11.70
2022-09-21T09:12:18.427Z,11.80
2022-09-21T09:15:29.918Z,11.80
2022-09-21T09:18:26.035Z,11.90
2022-09-21T09:21:29.850Z,12.00
2022-09-21T09:24:31.478Z,12.20
2022-09-21T09:27:24.789Z,12.30
2022-09-21T09:30:18.498Z,12.40
2022-09-21T09:33:14.585Z,12.50
2022-09-21T09:36:05.494Z,12.50
2022-09-21T09:38:57.362Z,12.60
2022-09-21T09:42:02.978Z,12.70
2022-09-21T09:45:26.160Z,12.80
2022-09-21T09:48:36.170Z,13.00
2022-09-21T09:51:26.818Z,13.20
2022-09-21T09:54:17.370Z,13.40
2022-09-21T09:57:08.165Z,13.50
2022-09-21T10:00:01.201Z,13.60
2022-09-21T10:02:50.827Z,13.70
2022-09-21T10:05:38.887Z,13.90
2022-09-21T10:08:43.179Z,14.20
2022-09-21T10:11:38.066Z,14.50
2022-09-21T10:14:30.508Z,14.50
2022-09-21T10:17:20.105Z,14.60
2022-09-21T10:20:16.141Z,15.00
2022-09-21T10:23:05.357Z,15.20
2022-09-21T10:25:59.660Z,15.30
2022-09-21T10:28:59.137Z,15.50
2022-09-21T10:31:57.672Z,15.30
2022-09-21T10:35:02.869Z,15.10
2022-09-21T10:38:10.412Z,15.00
2022-09-21T10:40:58.800Z,15.00
2022-09-21T10:43:47.902Z,15.40
2022-09-21T10:46:36.935Z,15.70
2022-09-21T10:49:28.631Z,16.00
2022-09-21T10:52:19.063Z,15.90
2022-09-21T10:55:15.973Z,15.90
2022-09-21T10:58:04.210Z,15.90
2022-09-21T11:00:53.976Z,15.70
2022-09-21T11:03:52.946Z,15.60
2022-09-21T11:06:46.706Z,15.80
2022-09-21T11:09:40.873Z,16.30
2022-09-21T11:12:40.386Z,16.80
2022-09-21T11:15:42.843Z,17.00
2022-09-21T11:18:40.530Z,16.90
2022-09-21T11:21:36.695Z,16.70
2022-09-21T11:24:36.129Z,16.50
2022-09-21T11:27:28.955Z,16.20
2022-09-21T11:30:19.166Z,15.90
2022-09-21T11:33:21.120Z,15.70
2022-09-21T11:36:18.088Z,15.70
2022-09-21T11:39:21.205Z,15.70
2022-09-21T11:42:28.416Z,15.60
2022-09-21T11:45:29.477Z,15.20
2022-09-21T11:48:24.802Z,15.20
2022-09-21T11:51:38.340Z,15.00
2022-09-21T11:55:01.082Z,15.20
2022-09-21T11:57:58.091Z,15.20
2022-09-21T12:00:57.601Z,15.50
2022-09-21T12:04:13.636Z,15.80
2022-09-21T12:07:16.059Z,16.00
2022-09-21T12:10:23.121Z,16.40
2022-09-21T12:13:22.587Z,16.80
2022-09-21T12:16:15.973Z,17.10
2022-09-21T12:19:10.568Z,17.10
2022-09-21T12:22:04.790Z,16.90
2022-09-21T12:24:55.489Z,16.90
2022-09-21T12:27:48.155Z,17.10
2022-09-21T12:30:40.529Z,17.10
2022-09-21T12:33:36.660Z,17.30
2022-09-21T12:36:29.662Z,17.70
2022-09-21T12:39:25.356Z,18.00
2022-09-21T12:42:25.997Z,18.10
2022-09-21T12:45:30.998Z,18.10
2022-09-21T12:48:29.965Z,18.00
2022-09-21T12:51:24.617Z,18.00
2022-09-21T12:54:20.848Z,17.90
2022-09-21T12:57:42.754Z,17.80
2022-09-21T13:00:35.886Z,17.70
2022-09-21T13:03:33.134Z,17.70
2022-09-21T13:06:40.885Z,18.00
2022-09-21T13:09:31.054Z,18.50
2022-09-21T13:12:22.870Z,18.80
2022-09-21T13:15:17.394Z,19.00
2022-09-21T13:18:08.326Z,19.00
2022-09-21T13:20:58.004Z,18.20
2022-09-21T13:23:56.163Z,17.90
2022-09-21T13:26:53.490Z,17.90
2022-09-21T13:29:42.781Z,17.50
2022-09-21T13:32:52.035Z,17.70
2022-09-21T13:35:55.550Z,17.70
2022-09-21T13:39:14.598Z,17.80
2022-09-21T13:42:46.289Z,17.80
2022-09-21T13:45:54.246Z,18.00
2022-09-21T13:51:34.046Z,19.70
2022-09-21T13:54:25.606Z,19.00
2022-09-21T13:57:21.098Z,19.00
2022-09-21T14:00:30.856Z,19.00
2022-09-21T14:03:25.414Z,19.10
2022-09-21T14:06:16.931Z,19.40
2022-09-21T14:09:08.962Z,19.50
2022-09-21T14:12:03.283Z,19.70
2022-09-21T14:15:12.774Z,20.80
2022-09-21T14:18:33.990Z,21.70
2022-09-21T14:21:22.939Z,21.90
2022-09-21T14:24:20.909Z,23.90
2022-09-21T14:27:19.162Z,25.10
2022-09-21T14:30:19.876Z,24.70
2022-09-21T14:33:25.320Z,24.40
2022-09-21T14:36:19.281Z,25.00
2022-09-21T14:39:14.261Z,25.20
2022-09-21T14:42:08.434Z,22.50
2022-09-21T14:45:03.857Z,22.50
2022-09-21T14:48:04.444Z,21.60
2022-09-21T14:50:58.341Z,20.90
2022-09-21T14:54:07.373Z,20.40
2022-09-21T14:57:08.608Z,20.00
2022-09-21T15:03:18.948Z,18.50
2022-09-21T15:06:37.836Z,18.30
2022-09-21T15:10:02.463Z,18.40
2022-09-21T15:12:59.195Z,18.50
2022-09-21T15:16:01.162Z,18.70
2022-09-21T15:18:51.321Z,18.90
2022-09-21T15:21:43.589Z,18.60
2022-09-21T15:24:34.250Z,18.00
2022-09-21T15:27:24.084Z,18.00
2022-09-21T15:30:21.662Z,18.00
2022-09-21T15:33:14.145Z,18.00
2022-09-21T15:36:03.033Z,17.90
2022-09-21T15:38:52.724Z,17.40
2022-09-21T15:41:42.898Z,17.40
2022-09-21T15:44:33.958Z,17.00
2022-09-21T15:47:26.096Z,17.00
2022-09-21T15:50:17.964Z,16.70
2022-09-21T15:53:10.211Z,16.70
2022-09-21T15:56:01.442Z,16.60
2022-09-21T15:58:50.778Z,16.50
2022-09-21T16:01:42.769Z,16.40
2022-09-21T16:04:32.422Z,16.20
2022-09-21T16:07:33.209Z,16.20
2022-09-21T16:10:40.234Z,16.10
2022-09-21T16:13:51.359Z,16.10
2022-09-21T16:17:12.807Z,15.90
2022-09-21T16:20:19.884Z,15.90
2022-09-21T16:23:15.716Z,15.80
2022-09-21T16:26:04.065Z,15.70
2022-09-21T16:29:16.158Z,15.60
2022-09-21T16:32:21.362Z,15.50
2022-09-21T16:35:29.019Z,15.40
2022-09-21T16:38:20.348Z,15.30
2022-09-21T16:41:08.850Z,15.20
2022-09-21T16:43:58.576Z,15.10
2022-09-21T16:46:47.090Z,15.00
2022-09-21T16:49:35.636Z,14.90
2022-09-21T16:52:24.145Z,14.80
2022-09-21T16:55:15.540Z,14.60
2022-09-21T16:58:04.190Z,14.50
2022-09-21T17:00:56.074Z,14.30
2022-09-21T17:03:45.162Z,14.10
2022-09-21T17:06:33.201Z,14.00
2022-09-21T17:09:29.493Z,13.80
2022-09-21T17:12:19.427Z,13.60
2022-09-21T17:15:09.971Z,13.50
2022-09-21T17:17:58.943Z,13.30
2022-09-21T17:20:47.984Z,13.10
2022-09-21T17:23:36.090Z,13.00
2022-09-21T17:26:24.110Z,12.90
2022-09-21T17:29:26.272Z,12.70
2022-09-21T17:32:14.545Z,12.60
2022-09-21T17:35:15.726Z,12.50
2022-09-21T17:38:04.091Z,12.40
2022-09-21T17:40:52.732Z,12.30
2022-09-21T17:43:49.186Z,12.10
2022-09-21T17:46:47.046Z,12.00
2022-09-21T17:49:35.536Z,12.00
2022-09-21T17:52:42.167Z,11.90
2022-09-21T17:55:31.361Z,11.80
2022-09-21T17:58:37.509Z,11.70
2022-09-21T18:01:33.718Z,11.40
2022-09-21T18:04:23.895Z,11.40
2022-09-21T18:07:12.962Z,11.40
2022-09-21T18:10:02.080Z,11.30
2022-09-21T18:13:20.261Z,11.30
2022-09-21T18:16:27.439Z,11.30
2022-09-21T18:19:31.059Z,11.20
2022-09-21T18:22:28.114Z,9.90
2022-09-21T18:25:19.238Z,11.00
2022-09-21T18:28:15.995Z,11.00
2022-09-21T18:31:12.964Z,10.90
2022-09-21T18:34:13.229Z,10.80
2022-09-21T18:37:12.946Z,10.70
2022-09-21T18:40:12.763Z,10.70
2022-09-21T18:43:06.107Z,10.60
2022-09-21T18:46:01.800Z,10.50
2022-09-21T18:48:57.175Z,10.50
2022-09-21T18:51:49.767Z,10.40
2022-09-21T18:54:40.463Z,10.30
2022-09-21T18:57:32.280Z,10.30
2022-09-21T19:00:21.903Z,10.30
2022-09-21T19:03:18.098Z,10.20
2022-09-21T19:06:30.086Z,10.20
2022-09-21T19:09:38.224Z,10.20
2022-09-21T19:12:39.870Z,10.10
2022-09-21T19:15:59.925Z,10.10
2022-09-21T19:18:59.910Z,10.00
2022-09-21T19:21:56.468Z,9.90
2022-09-21T19:24:54.172Z,9.90
2022-09-21T19:27:51.452Z,9.80
2022-09-21T19:30:40.630Z,9.80
2022-09-21T19:33:50.307Z,9.80
2022-09-21T19:36:38.974Z,9.80
2022-09-21T19:39:27.895Z,9.70
2022-09-21T19:42:29.303Z,9.60
2022-09-21T19:45:26.883Z,9.60
2022-09-21T19:48:17.003Z,9.60
2022-09-21T19:51:05.750Z,9.60
2022-09-21T19:54:14.152Z,9.50
2022-09-21T19:57:20.368Z,9.50
2022-09-21T20:00:11.680Z,9.40
2022-09-21T20:03:05.743Z,9.40
2022-09-21T20:05:59.519Z,9.30
2022-09-21T20:08:53.842Z,9.30
2022-09-21T20:11:47.630Z,9.30
2022-09-21T20:14:40.785Z,9.20
2022-09-21T20:17:36.427Z,9.20
2022-09-21T20:20:27.155Z,9.20
2022-09-21T20:23:15.574Z,9.10
2022-09-21T20:26:09.192Z,9.10
2022-09-21T20:28:58.097Z,9.00
2022-09-21T20:31:48.302Z,9.00
2022-09-21T20:34:36.352Z,9.00
2022-09-21T20:37:26.256Z,8.90
2022-09-21T20:40:15.652Z,8.90
2022-09-21T20:43:03.767Z,8.90
2022-09-21T20:45:51.862Z,8.90
2022-09-21T20:48:40.419Z,8.90
2022-09-21T20:51:28.711Z,8.80
2022-09-21T20:54:18.174Z,8.80
2022-09-21T20:57:06.366Z,8.80
2022-09-21T20:59:54.411Z,8.80
2022-09-21T21:02:42.957Z,8.80
2022-09-21T21:05:31.050Z,8.70
2022-09-21T21:08:19.080Z,8.70
2022-09-21T21:11:10.040Z,8.70
2022-09-21T21:13:58.853Z,8.70
2022-09-21T21:16:46.988Z,8.60
2022-09-21T21:19:35.105Z,8.60
2022-09-21T21:22:23.174Z,8.60
2022-09-21T21:25:11.862Z,8.50
2022-09-21T21:28:01.373Z,8.50
2022-09-21T21:30:53.577Z,8.50
2022-09-21T21:33:41.643Z,8.50
2022-09-21T21:36:29.710Z,8.40
2022-09-21T21:39:17.835Z,8.50
2022-09-21T21:42:07.057Z,8.50
2022-09-21T21:44:56.464Z,8.50
2022-09-21T21:47:44.648Z,8.60
2022-09-21T21:50:32.667Z,8.60
2022-09-21T21:53:21.541Z,8.60
2022-09-21T21:56:11.960Z,8.60
2022-09-21T21:59:00.028Z,8.60
2022-09-21T22:01:49.399Z,8.60
2022-09-21T22:07:26.828Z,8.60
2022-09-21T22:10:14.865Z,8.70
2022-09-21T22:13:04.718Z,8.70
2022-09-21T22:15:53.397Z,8.80
2022-09-21T22:18:43.858Z,8.80
2022-09-21T22:21:33.265Z,8.90
2022-09-21T22:24:21.566Z,9.00
2022-09-21T22:27:09.606Z,9.10
2022-09-21T22:29:57.648Z,9.20
2022-09-21T22:32:46.145Z,9.20
2022-09-21T22:35:35.542Z,9.20
2022-09-21T22:38:23.653Z,9.30
2022-09-21T22:41:14.216Z,9.30
2022-09-21T22:44:02.669Z,9.40
2022-09-21T22:46:50.697Z,9.40
2022-09-21T22:49:38.775Z,9.40
2022-09-21T22:52:28.180Z,9.50
2022-09-21T22:55:16.335Z,9.50
2022-09-21T22:58:04.397Z,9.50
2022-09-21T23:00:52.490Z,9.50
2022-09-21T23:03:41.810Z,9.50
2022-09-21T23:06:33.265Z,9.60
2022-09-21T23:09:22.858Z,9.60
2022-09-21T23:12:10.954Z,9.60
2022-09-21T23:14:59.010Z,9.60
2022-09-21T23:17:47.735Z,9.60
2022-09-21T23:20:35.765Z,9.60
2022-09-21T23:23:23.895Z,9.50
2022-09-21T23:26:15.244Z,9.40
2022-09-21T23:29:05.233Z,9.40
2022-09-21T23:31:53.370Z,9.30
2022-09-21T23:34:41.389Z,9.20
2022-09-21T23:37:29.695Z,9.20
2022-09-21T23:40:17.919Z,9.20
2022-09-21T23:43:07.318Z,9.10
2022-09-21T23:45:55.370Z,8.80
2022-09-21T23:48:44.260Z,8.80
2022-09-21T23:51:32.298Z,8.70
2022-09-21T23:54:20.499Z,8.60
2022-09-21T23:57:08.597Z,8.40
2022-09-21T23:59:58.031Z,8.40
